LIBD

Bari Karol Wojtyła Airport

Bari, Italy
TAF LIBD 212300Z 2200/2224 17010KT 9999 SCT030 TEMPO 2200/2209 SHRA
Issued Valid From Valid To
Jan-21 @ 23:00 UTC
(an hour ago)
Jan-22 @ 00:00 UTC
(10 minutes ago)
Jan-23 @ 00:00 UTC
(in 24 hours)
Jan-22 @ 00:00 to Jan-23 @ 00:00
TAF LIBD 212300Z 2200/2224 17010KT 9999 SCT030
Wind Visibility Clouds
170° at 10 knots 10,000+ meters
  • Scattered at 3,000' AGL
Temporary Jan-22 @ 00:00 to Jan-22 @ 09:00
TEMPO 2200/2209 SHRA
Conditions
  • Rain
TAF LIBD 212300Z 2200/2224 17010KT 9999 SCT030 TEMPO 2200/2209 SHRA
Issued Jan-21 @ 23:00 UTC
(an hour ago)
Valid From Jan-22 @ 00:00 UTC
(10 minutes ago)
Valid To Jan-23 @ 00:00 UTC
(in 24 hours)
Jan-22 @ 00:00 - Jan-23 @ 00:00
Wind Visibility
170° at 10 knots 10,000+ meters
Clouds
  • Scattered at 3,000' AGL
Temporary Jan-22 @ 00:00 - Jan-22 @ 09:00
Conditions
  • Rain